createdAt,value
2023-02-21T00:01:21.123Z,99.99
2023-02-21T00:04:09.422Z,99.99
2023-02-21T00:06:57.457Z,99.99
2023-02-21T00:09:45.844Z,99.99
2023-02-21T00:12:33.709Z,99.99
2023-02-21T00:15:25.128Z,99.99
2023-02-21T00:18:12.891Z,99.99
2023-02-21T00:21:00.925Z,99.99
2023-02-21T00:23:52.930Z,99.99
2023-02-21T00:26:42.071Z,99.99
2023-02-21T00:29:30.050Z,99.99
2023-02-21T00:32:18.226Z,99.99
2023-02-21T00:35:06.369Z,99.99
2023-02-21T00:37:56.089Z,99.99
2023-02-21T00:40:43.994Z,99.99
2023-02-21T00:43:32.081Z,99.99
2023-02-21T00:46:20.274Z,99.99
2023-02-21T00:49:08.618Z,99.99
2023-02-21T00:51:56.801Z,99.99
2023-02-21T00:54:45.180Z,99.99
2023-02-21T00:57:33.589Z,99.99
2023-02-21T01:00:22.075Z,99.99
2023-02-21T01:03:10.140Z,99.99
2023-02-21T01:05:58.342Z,99.99
2023-02-21T01:08:46.069Z,99.99
2023-02-21T01:11:36.492Z,99.99
2023-02-21T01:14:26.835Z,99.99
2023-02-21T01:17:16.757Z,99.99
2023-02-21T01:20:05.001Z,99.99
2023-02-21T01:22:55.416Z,99.99
2023-02-21T01:25:43.546Z,99.99
2023-02-21T01:28:32.055Z,99.99
2023-02-21T01:31:22.556Z,99.99
2023-02-21T01:34:10.850Z,99.99
2023-02-21T01:37:01.817Z,99.99
2023-02-21T01:39:49.975Z,99.99
2023-02-21T01:42:37.848Z,99.99
2023-02-21T01:45:52.065Z,99.99
2023-02-21T01:48:43.369Z,99.99
2023-02-21T01:51:34.178Z,99.99
2023-02-21T01:54:23.466Z,99.99
2023-02-21T01:57:12.364Z,99.99
2023-02-21T02:00:00.937Z,99.99
2023-02-21T02:03:28.952Z,99.99
2023-02-21T02:06:28.792Z,99.99
2023-02-21T02:09:17.123Z,99.99
2023-02-21T02:12:26.074Z,99.99
2023-02-21T02:15:10.447Z,99.99
2023-02-21T02:17:52.017Z,99.99
2023-02-21T02:20:39.834Z,99.99
2023-02-21T02:23:43.430Z,99.99
2023-02-21T02:26:34.565Z,99.99
2023-02-21T02:29:17.132Z,99.99
2023-02-21T02:32:25.536Z,99.99
2023-02-21T02:35:01.756Z,99.99
2023-02-21T02:38:05.254Z,99.99
2023-02-21T02:40:48.000Z,99.99
2023-02-21T02:43:33.305Z,99.99
2023-02-21T02:46:10.803Z,99.99
2023-02-21T02:48:44.281Z,99.99
2023-02-21T02:51:18.336Z,99.99
2023-02-21T02:53:49.118Z,99.99
2023-02-21T02:56:20.720Z,99.99
2023-02-21T02:58:53.612Z,99.99
2023-02-21T03:01:50.963Z,99.99
2023-02-21T03:04:47.836Z,99.99
2023-02-21T03:07:36.771Z,99.99
2023-02-21T03:10:22.724Z,99.99
2023-02-21T03:13:28.202Z,99.99
2023-02-21T03:16:01.463Z,99.99
2023-02-21T03:18:38.185Z,99.99
2023-02-21T03:21:16.293Z,99.99
2023-02-21T03:23:49.857Z,99.99
2023-02-21T03:26:20.665Z,99.99
2023-02-21T03:28:57.745Z,99.99
2023-02-21T03:31:33.056Z,99.99
2023-02-21T03:34:03.794Z,99.99
2023-02-21T03:36:34.537Z,99.99
2023-02-21T03:39:04.858Z,99.99
2023-02-21T03:41:34.966Z,99.99
2023-02-21T03:44:04.565Z,99.99
2023-02-21T03:46:36.390Z,99.99
2023-02-21T03:49:07.540Z,99.99
2023-02-21T03:51:37.414Z,99.99
2023-02-21T03:54:08.534Z,99.99
2023-02-21T03:56:44.907Z,99.99
2023-02-21T03:59:24.047Z,99.99
2023-02-21T04:01:54.785Z,99.99
2023-02-21T04:04:26.116Z,99.99
2023-02-21T04:07:06.537Z,99.99
2023-02-21T04:09:36.544Z,99.99
2023-02-21T04:12:07.399Z,99.99
2023-02-21T04:14:38.968Z,99.99
2023-02-21T04:17:09.261Z,99.99
2023-02-21T04:19:39.220Z,99.99
2023-02-21T04:22:10.506Z,99.99
2023-02-21T04:24:40.470Z,99.99
2023-02-21T04:27:10.566Z,99.99
2023-02-21T04:29:43.101Z,99.99
2023-02-21T04:32:13.546Z,99.99
2023-02-21T04:34:44.556Z,99.99
2023-02-21T04:37:16.530Z,99.99
2023-02-21T04:39:46.855Z,99.99
2023-02-21T04:42:18.537Z,99.99
2023-02-21T04:44:59.490Z,99.99
2023-02-21T04:47:31.295Z,99.99
2023-02-21T04:50:01.544Z,99.99
2023-02-21T04:52:32.749Z,99.99
2023-02-21T04:55:02.352Z,99.99
2023-02-21T04:57:32.283Z,99.99
2023-02-21T05:00:02.570Z,99.99
2023-02-21T05:02:32.345Z,99.99
2023-02-21T05:05:02.143Z,99.99
2023-02-21T05:07:31.900Z,99.99
2023-02-21T05:10:01.506Z,99.99
2023-02-21T05:12:31.088Z,99.99
2023-02-21T05:15:01.268Z,99.99
2023-02-21T05:17:31.062Z,99.99
2023-02-21T05:20:00.864Z,99.99
2023-02-21T05:22:30.438Z,99.99
2023-02-21T05:25:00.162Z,99.99
2023-02-21T05:27:29.954Z,99.99
2023-02-21T05:29:59.540Z,99.99
2023-02-21T05:32:31.181Z,99.99
2023-02-21T05:35:01.045Z,99.99
2023-02-21T05:37:31.457Z,99.99
2023-02-21T05:40:01.680Z,99.99
2023-02-21T05:42:31.657Z,99.99
2023-02-21T05:45:01.586Z,99.99
2023-02-21T05:47:31.320Z,99.99
2023-02-21T05:50:01.077Z,99.99
2023-02-21T05:52:30.921Z,99.99
2023-02-21T05:55:00.578Z,99.99
2023-02-21T05:57:30.329Z,99.99
2023-02-21T06:00:00.082Z,99.99
2023-02-21T06:02:29.700Z,99.99
2023-02-21T06:04:59.242Z,99.99
2023-02-21T06:07:29.028Z,99.99
2023-02-21T06:09:58.657Z,99.99
2023-02-21T06:12:28.529Z,99.99
2023-02-21T06:14:58.420Z,99.99
2023-02-21T06:17:28.147Z,99.99
2023-02-21T06:19:58.521Z,99.99
2023-02-21T06:22:28.249Z,99.99
2023-02-21T06:24:57.797Z,99.99
2023-02-21T06:27:27.422Z,99.99
2023-02-21T06:29:57.220Z,99.99
2023-02-21T06:32:26.781Z,99.99
2023-02-21T06:34:56.341Z,99.99
2023-02-21T06:37:26.996Z,99.99
2023-02-21T06:39:56.928Z,99.99
2023-02-21T06:42:26.560Z,99.99
2023-02-21T06:44:56.519Z,99.99
2023-02-21T06:47:26.284Z,99.99
2023-02-21T06:49:55.879Z,99.99
2023-02-21T06:52:26.240Z,99.99
2023-02-21T06:54:55.991Z,99.99
2023-02-21T06:57:25.608Z,99.99
2023-02-21T06:59:55.567Z,99.99
2023-02-21T07:02:26.174Z,99.99
2023-02-21T07:04:56.074Z,99.99
2023-02-21T07:07:26.060Z,99.99
2023-02-21T07:09:55.681Z,99.99
2023-02-21T07:12:25.478Z,99.99
2023-02-21T07:14:56.497Z,99.99
2023-02-21T07:17:26.405Z,99.99
2023-02-21T07:19:56.047Z,99.99
2023-02-21T07:22:27.311Z,99.99
2023-02-21T07:24:58.002Z,99.99
2023-02-21T07:27:27.917Z,99.99
2023-02-21T07:29:57.505Z,99.99
2023-02-21T07:32:27.331Z,99.99
2023-02-21T07:34:56.906Z,99.99
2023-02-21T07:37:28.630Z,99.99
2023-02-21T07:39:58.688Z,99.99
2023-02-21T07:42:28.935Z,99.99
2023-02-21T07:45:00.036Z,99.99
2023-02-21T07:47:30.111Z,99.99
2023-02-21T07:49:59.850Z,99.99
2023-02-21T07:52:29.388Z,99.99
2023-02-21T07:54:59.262Z,99.99
2023-02-21T07:57:28.992Z,99.99
2023-02-21T07:59:59.689Z,99.99
2023-02-21T08:02:29.549Z,99.99
2023-02-21T08:04:59.167Z,99.99
2023-02-21T08:07:28.776Z,99.99
2023-02-21T08:09:58.565Z,99.99
2023-02-21T08:12:28.158Z,99.99
2023-02-21T08:14:57.725Z,99.99
2023-02-21T08:17:27.786Z,99.99
2023-02-21T08:19:58.599Z,99.99
2023-02-21T08:22:28.409Z,99.99
2023-02-21T08:24:58.052Z,99.99
2023-02-21T08:27:27.772Z,99.99
2023-02-21T08:29:57.309Z,99.99
2023-02-21T08:32:27.738Z,99.99
2023-02-21T08:34:57.478Z,99.99
2023-02-21T08:37:27.023Z,99.99
2023-02-21T08:39:56.596Z,99.99
2023-02-21T08:42:26.607Z,99.99
2023-02-21T08:44:56.539Z,99.99
2023-02-21T08:47:26.214Z,99.99
2023-02-21T08:49:55.840Z,99.99
2023-02-21T08:52:25.650Z,99.99
2023-02-21T08:54:56.613Z,99.99
2023-02-21T08:57:26.384Z,99.99
2023-02-21T08:59:56.034Z,99.99
2023-02-21T09:02:27.381Z,99.99
2023-02-21T09:04:57.156Z,99.99
2023-02-21T09:07:27.130Z,99.99
2023-02-21T09:09:56.941Z,99.99
2023-02-21T09:12:26.762Z,99.99
2023-02-21T09:14:56.527Z,99.99
2023-02-21T09:17:26.788Z,99.99
2023-02-21T09:19:56.584Z,99.99
2023-02-21T09:22:26.161Z,99.99
2023-02-21T09:24:55.806Z,99.99
2023-02-21T09:27:37.535Z,99.99
2023-02-21T09:30:14.450Z,99.99
2023-02-21T09:32:44.519Z,99.99
2023-02-21T09:35:15.629Z,99.99
2023-02-21T09:37:47.127Z,99.99
2023-02-21T09:40:46.074Z,99.99
2023-02-21T09:43:22.695Z,99.99
2023-02-21T09:45:56.639Z,99.99
2023-02-21T09:48:27.786Z,99.99
2023-02-21T09:51:04.058Z,99.99
2023-02-21T09:53:39.367Z,99.99
2023-02-21T09:56:30.827Z,99.99
2023-02-21T09:59:00.138Z,99.99
2023-02-21T10:02:02.934Z,99.99
2023-02-21T10:04:52.293Z,99.99
2023-02-21T10:07:52.324Z,99.99
2023-02-21T10:10:40.628Z,99.99
2023-02-21T10:13:34.765Z,99.99
2023-02-21T10:16:14.768Z,99.99
2023-02-21T10:19:19.147Z,99.99
2023-02-21T10:21:52.320Z,99.99
2023-02-21T10:24:24.958Z,99.99
2023-02-21T10:27:07.021Z,99.99
2023-02-21T10:29:50.109Z,99.99
2023-02-21T10:32:20.417Z,99.99
2023-02-21T10:34:50.717Z,99.99
2023-02-21T10:37:27.862Z,99.99
2023-02-21T10:40:21.857Z,99.99
2023-02-21T10:42:58.247Z,99.99
2023-02-21T10:45:35.988Z,99.99
2023-02-21T10:48:11.972Z,99.99
2023-02-21T10:51:07.744Z,99.99
2023-02-21T10:53:49.400Z,99.99
2023-02-21T10:56:19.911Z,99.99
2023-02-21T10:58:52.182Z,99.99
2023-02-21T11:01:33.934Z,99.99
2023-02-21T11:04:25.137Z,99.99
2023-02-21T11:06:56.808Z,99.99
2023-02-21T11:09:30.260Z,99.99
2023-02-21T11:12:19.132Z,99.99
2023-02-21T11:14:54.767Z,99.99
2023-02-21T11:17:25.997Z,99.99
2023-02-21T11:19:59.475Z,99.99
2023-02-21T11:22:40.208Z,99.99
2023-02-21T11:25:30.604Z,99.99
2023-02-21T11:28:17.880Z,99.99
2023-02-21T11:30:55.232Z,99.99
2023-02-21T11:33:25.481Z,99.99
2023-02-21T11:36:09.656Z,99.99
2023-02-21T11:38:47.919Z,99.99
2023-02-21T11:41:29.993Z,99.99
2023-02-21T11:44:00.351Z,99.99
2023-02-21T11:46:41.921Z,99.99
2023-02-21T11:49:27.712Z,99.99
2023-02-21T11:52:27.982Z,99.99
2023-02-21T11:54:58.070Z,99.99
2023-02-21T11:58:02.450Z,99.99
2023-02-21T12:00:48.251Z,99.99
2023-02-21T12:03:20.654Z,99.99
2023-02-21T12:06:30.179Z,99.99
2023-02-21T12:09:15.140Z,99.99
2023-02-21T12:12:17.249Z,99.99
2023-02-21T12:15:04.602Z,99.99
2023-02-21T12:17:48.615Z,99.99
2023-02-21T12:20:55.656Z,99.99
2023-02-21T12:23:43.750Z,99.99
2023-02-21T12:26:20.357Z,99.99
2023-02-21T12:28:56.145Z,99.99
2023-02-21T12:32:00.356Z,99.99
2023-02-21T12:34:39.283Z,99.99
2023-02-21T12:37:08.620Z,99.99
2023-02-21T12:39:40.632Z,99.99
2023-02-21T12:42:32.763Z,99.99
2023-02-21T12:45:26.347Z,99.99
2023-02-21T12:48:40.233Z,99.99
2023-02-21T12:51:16.294Z,99.99
2023-02-21T12:53:55.247Z,99.99
2023-02-21T12:56:34.426Z,99.99
2023-02-21T12:59:29.462Z,99.99
2023-02-21T13:02:10.201Z,99.79
2023-02-21T13:05:04.399Z,97.98
2023-02-21T13:07:45.392Z,96.15
2023-02-21T13:10:42.450Z,96.58
2023-02-21T13:13:17.551Z,96.20
2023-02-21T13:15:50.065Z,95.95
2023-02-21T13:18:33.986Z,97.10
2023-02-21T13:21:40.537Z,95.88
2023-02-21T13:24:25.634Z,91.38
2023-02-21T13:27:19.329Z,89.73
2023-02-21T13:29:51.072Z,88.02
2023-02-21T13:32:21.941Z,87.97
2023-02-21T13:35:02.586Z,88.77
2023-02-21T13:37:35.679Z,84.77
2023-02-21T13:40:23.731Z,85.62
2023-02-21T13:43:36.514Z,86.34
2023-02-21T13:46:33.420Z,86.30
2023-02-21T13:49:39.708Z,89.83
2023-02-21T13:52:23.614Z,86.87
2023-02-21T13:55:17.291Z,85.77
2023-02-21T13:58:01.359Z,85.31
2023-02-21T14:00:31.197Z,83.90
2023-02-21T14:03:13.689Z,85.26
2023-02-21T14:05:50.798Z,84.76
2023-02-21T14:08:47.487Z,85.70
2023-02-21T14:11:22.097Z,83.93
2023-02-21T14:14:01.188Z,82.92
2023-02-21T14:16:54.541Z,82.80
2023-02-21T14:19:48.947Z,78.83
2023-02-21T14:22:26.435Z,80.88
2023-02-21T14:25:11.292Z,82.91
2023-02-21T14:27:43.602Z,79.62
2023-02-21T14:30:13.547Z,81.81
2023-02-21T14:32:53.872Z,81.87
2023-02-21T14:35:36.642Z,80.90
2023-02-21T14:38:16.989Z,78.21
2023-02-21T14:41:18.445Z,81.50
2023-02-21T14:44:31.800Z,82.00
2023-02-21T14:47:48.548Z,83.47
2023-02-21T14:50:42.577Z,81.33
2023-02-21T14:53:24.392Z,77.30
2023-02-21T14:56:30.726Z,81.75
2023-02-21T14:59:18.288Z,77.85
2023-02-21T15:02:20.934Z,79.03
2023-02-21T15:05:09.052Z,80.40
2023-02-21T15:08:05.411Z,82.22
2023-02-21T15:10:46.336Z,79.72
2023-02-21T15:13:31.256Z,80.22
2023-02-21T15:16:10.180Z,77.91
2023-02-21T15:18:42.608Z,75.74
2023-02-21T15:21:12.511Z,77.18
2023-02-21T15:23:47.652Z,77.84
2023-02-21T15:26:20.452Z,78.24
2023-02-21T15:29:17.521Z,81.62
2023-02-21T15:31:53.723Z,77.05
2023-02-21T15:34:34.406Z,77.01
2023-02-21T15:37:22.292Z,78.40
2023-02-21T15:40:05.835Z,76.02
2023-02-21T15:42:36.849Z,77.07
2023-02-21T15:45:20.028Z,77.81
2023-02-21T15:47:51.312Z,80.96
2023-02-21T15:50:28.767Z,80.75
2023-02-21T15:53:23.410Z,78.46
2023-02-21T15:55:54.862Z,75.16
2023-02-21T15:58:28.984Z,74.32
2023-02-21T16:01:11.365Z,73.93
2023-02-21T16:03:43.488Z,78.36
2023-02-21T16:06:33.125Z,78.40
2023-02-21T16:09:22.672Z,77.55
2023-02-21T16:11:57.285Z,75.81
2023-02-21T16:14:42.628Z,75.12
2023-02-21T16:17:15.066Z,75.20
2023-02-21T16:19:49.129Z,75.74
2023-02-21T16:22:59.669Z,78.92
2023-02-21T16:25:29.428Z,77.74
2023-02-21T16:28:03.065Z,76.48
2023-02-21T16:30:36.528Z,74.68
2023-02-21T16:33:07.575Z,78.80
2023-02-21T16:35:37.633Z,74.80
2023-02-21T16:38:10.198Z,74.29
2023-02-21T16:40:40.151Z,76.55
2023-02-21T16:43:16.526Z,76.85
2023-02-21T16:45:46.944Z,72.62
2023-02-21T16:48:22.736Z,73.33
2023-02-21T16:50:53.121Z,74.75
2023-02-21T16:53:24.151Z,76.29
2023-02-21T16:55:54.170Z,80.41
2023-02-21T16:58:28.377Z,83.15
2023-02-21T17:01:02.969Z,79.36
2023-02-21T17:03:32.769Z,78.28
2023-02-21T17:06:02.738Z,75.98
2023-02-21T17:08:33.394Z,74.16
2023-02-21T17:11:06.553Z,72.70
2023-02-21T17:13:36.499Z,75.42
2023-02-21T17:16:07.084Z,74.11
2023-02-21T17:18:37.242Z,77.41
2023-02-21T17:21:07.381Z,77.85
2023-02-21T17:23:36.973Z,76.77
2023-02-21T17:26:06.938Z,74.08
2023-02-21T17:28:38.784Z,74.35
2023-02-21T17:31:08.795Z,74.13
2023-02-21T17:33:39.338Z,73.16
2023-02-21T17:36:09.713Z,74.46
2023-02-21T17:38:39.681Z,71.82
2023-02-21T17:41:09.977Z,73.38
2023-02-21T17:43:40.419Z,70.34
2023-02-21T17:46:14.559Z,73.46
2023-02-21T17:48:45.430Z,75.81
2023-02-21T17:51:28.001Z,78.70
2023-02-21T17:53:57.981Z,74.84
2023-02-21T17:56:29.423Z,77.54
2023-02-21T17:59:00.121Z,75.40
2023-02-21T18:01:30.579Z,73.93
2023-02-21T18:04:03.429Z,72.48
2023-02-21T18:06:33.432Z,70.65
2023-02-21T18:09:04.183Z,69.00
2023-02-21T18:11:34.049Z,71.94
2023-02-21T18:14:04.828Z,76.13
2023-02-21T18:16:34.595Z,77.32
2023-02-21T18:19:04.579Z,77.07
2023-02-21T18:21:35.530Z,73.87
2023-02-21T18:24:05.656Z,72.97
2023-02-21T18:26:35.517Z,74.87
2023-02-21T18:29:06.826Z,78.02
2023-02-21T18:31:37.355Z,78.27
2023-02-21T18:34:08.664Z,78.02
2023-02-21T18:36:41.963Z,77.52
2023-02-21T18:39:11.770Z,75.92
2023-02-21T18:41:47.213Z,75.67
2023-02-21T18:44:17.338Z,77.87
2023-02-21T18:46:57.947Z,76.49
2023-02-21T18:49:35.932Z,75.70
2023-02-21T18:52:08.222Z,76.65
2023-02-21T18:54:38.105Z,75.60
2023-02-21T18:57:08.969Z,77.49
2023-02-21T18:59:38.890Z,80.44
2023-02-21T19:02:10.878Z,82.23
2023-02-21T19:04:41.111Z,83.40
2023-02-21T19:07:17.111Z,83.48
2023-02-21T19:09:48.622Z,82.30
2023-02-21T19:12:19.002Z,79.90
2023-02-21T19:14:48.832Z,78.64
2023-02-21T19:17:18.581Z,79.28
2023-02-21T19:19:48.557Z,78.29
2023-02-21T19:22:18.376Z,78.38
2023-02-21T19:24:48.032Z,78.37
2023-02-21T19:27:17.686Z,78.63
2023-02-21T19:29:48.509Z,77.87
2023-02-21T19:32:20.218Z,78.92
2023-02-21T19:34:51.115Z,79.51
2023-02-21T19:37:21.683Z,79.40
2023-02-21T19:39:51.743Z,80.23
2023-02-21T19:42:21.598Z,80.42
2023-02-21T19:44:51.697Z,79.49
2023-02-21T19:47:21.726Z,80.08
2023-02-21T19:49:51.525Z,80.84
2023-02-21T19:52:21.115Z,81.16
2023-02-21T19:54:50.725Z,81.06
2023-02-21T19:57:20.471Z,82.03
2023-02-21T19:59:50.040Z,81.76
2023-02-21T20:02:21.032Z,81.59
2023-02-21T20:04:50.842Z,82.22
2023-02-21T20:07:21.852Z,83.18
2023-02-21T20:09:52.629Z,83.39
2023-02-21T20:12:24.479Z,83.05
2023-02-21T20:14:57.487Z,82.48
2023-02-21T20:17:27.519Z,82.52
2023-02-21T20:19:58.289Z,82.78
2023-02-21T20:22:34.856Z,82.94
2023-02-21T20:25:04.772Z,83.01
2023-02-21T20:27:34.901Z,83.08
2023-02-21T20:30:06.894Z,83.28
2023-02-21T20:32:36.998Z,83.17
2023-02-21T20:35:08.880Z,83.50
2023-02-21T20:37:38.428Z,82.88
2023-02-21T20:40:11.392Z,83.21
2023-02-21T20:42:41.318Z,83.80
2023-02-21T20:45:14.038Z,84.86
2023-02-21T20:47:44.047Z,85.11
2023-02-21T20:50:14.095Z,84.29
2023-02-21T20:52:43.982Z,84.71
2023-02-21T20:55:19.292Z,84.35
2023-02-21T20:57:49.770Z,86.34
2023-02-21T21:00:24.512Z,86.64
2023-02-21T21:02:54.682Z,85.90
2023-02-21T21:05:27.396Z,86.49
2023-02-21T21:07:58.393Z,86.00
2023-02-21T21:10:28.578Z,85.73
2023-02-21T21:12:58.578Z,86.45
2023-02-21T21:15:28.491Z,86.57
2023-02-21T21:17:58.474Z,87.96
2023-02-21T21:20:28.707Z,88.24
2023-02-21T21:22:58.559Z,89.26
2023-02-21T21:25:28.136Z,89.47
2023-02-21T21:27:57.744Z,90.29
2023-02-21T21:30:28.481Z,90.97
2023-02-21T21:33:02.133Z,91.18
2023-02-21T21:35:31.992Z,91.11
2023-02-21T21:38:04.100Z,91.06
2023-02-21T21:40:33.861Z,91.27
2023-02-21T21:43:07.888Z,92.83
2023-02-21T21:45:45.337Z,92.44
2023-02-21T21:48:16.113Z,92.98
2023-02-21T21:50:46.089Z,93.17
2023-02-21T21:53:16.197Z,93.33
2023-02-21T21:55:45.994Z,93.42
2023-02-21T21:58:15.951Z,93.97
2023-02-21T22:00:47.540Z,95.60
2023-02-21T22:03:20.177Z,96.25
2023-02-21T22:05:52.455Z,96.46
2023-02-21T22:08:45.777Z,96.81
2023-02-21T22:11:16.535Z,97.44
2023-02-21T22:13:47.422Z,98.94
2023-02-21T22:16:18.385Z,99.54
2023-02-21T22:18:48.183Z,99.99
2023-02-21T22:21:18.388Z,99.99
2023-02-21T22:23:49.558Z,99.99
2023-02-21T22:26:22.498Z,99.99
2023-02-21T22:28:52.935Z,99.99
2023-02-21T22:31:24.410Z,99.99
2023-02-21T22:33:55.202Z,99.99
2023-02-21T22:36:25.678Z,99.99
2023-02-21T22:38:58.103Z,99.99
2023-02-21T22:41:34.504Z,99.99
2023-02-21T22:44:04.661Z,99.99
2023-02-21T22:47:00.607Z,99.99
2023-02-21T22:49:33.852Z,99.99
2023-02-21T22:52:05.237Z,99.99
2023-02-21T22:54:35.690Z,99.99
2023-02-21T22:57:06.357Z,99.99
2023-02-21T22:59:36.572Z,99.99
2023-02-21T23:02:07.087Z,99.99
2023-02-21T23:04:38.202Z,99.99
2023-02-21T23:07:09.462Z,99.99
2023-02-21T23:09:39.031Z,99.99
2023-02-21T23:12:08.989Z,99.99
2023-02-21T23:14:40.598Z,99.99
2023-02-21T23:17:10.630Z,99.99
2023-02-21T23:19:40.946Z,99.99
2023-02-21T23:22:11.309Z,99.99
2023-02-21T23:24:44.563Z,99.99
2023-02-21T23:27:14.530Z,99.99
2023-02-21T23:29:44.095Z,99.99
2023-02-21T23:32:16.584Z,99.99
2023-02-21T23:34:46.586Z,99.99
2023-02-21T23:37:16.554Z,99.99
2023-02-21T23:39:47.805Z,99.99
2023-02-21T23:42:18.625Z,99.99
2023-02-21T23:44:51.872Z,99.99
2023-02-21T23:47:22.277Z,99.99
2023-02-21T23:49:52.192Z,99.99
2023-02-21T23:52:23.970Z,99.99
2023-02-21T23:54:56.551Z,99.99
2023-02-21T23:57:26.358Z,99.99
2023-02-21T23:59:55.913Z,99.99
